Time;durP1;ratioP1;P1;durP2;ratioP2;P2;SDS_P1;SDS_P2;PMS_P1;PMS_P2;Temp;Humidity;BMP_temperature;BMP_pressure;BME280_temperature;BME280_humidity;BME280_pressure;Samples;Min_cycle;Max_cycle;Signal;HPM_P1;HPM_P2
2022/03/11 00:00:51;;;;;;;7.63;4.03;;;;;;;3.86;62.04;96638.09;5057651;28;20208;-70
2022/03/11 00:03:20;;;;;;;7.97;3.93;;;;;;;3.90;61.67;96634.25;5056637;28;20220;-68
2022/03/11 00:05:47;;;;;;;7.37;3.50;;;;;;;3.93;61.47;96645.25;5058021;28;20311;-70
2022/03/11 00:08:15;;;;;;;9.00;3.80;;;;;;;3.95;61.41;96643.34;5057960;28;20227;-70
2022/03/11 00:10:42;;;;;;;13.30;4.97;;;;;;;3.84;61.43;96640.78;5057523;28;20204;-69
2022/03/11 00:13:09;;;;;;;4.50;2.43;;;;;;;3.76;61.34;96645.00;5056881;28;20217;-69
2022/03/11 00:15:36;;;;;;;12.97;4.83;;;;;;;3.86;61.13;96641.50;5057721;28;20196;-71
2022/03/11 00:18:03;;;;;;;8.33;3.83;;;;;;;3.93;60.54;96655.66;5057310;28;20197;-70
2022/03/11 00:20:31;;;;;;;14.70;5.57;;;;;;;3.80;61.00;96642.00;5057762;28;20196;-70
2022/03/11 00:22:59;;;;;;;6.67;3.60;;;;;;;3.91;60.19;96644.56;5056577;28;20235;-69
2022/03/11 00:25:29;;;;;;;12.53;4.97;;;;;;;4.09;59.69;96643.03;5056394;28;20704;-71
2022/03/11 00:27:56;;;;;;;13.57;4.17;;;;;;;3.75;60.00;96644.16;5057687;28;20197;-71
2022/03/11 00:30:22;;;;;;;15.13;4.10;;;;;;;3.67;59.76;96648.38;5057281;28;20216;-69
2022/03/11 00:32:49;;;;;;;7.67;3.17;;;;;;;3.75;59.68;96641.56;5055471;28;20216;-70
2022/03/11 00:35:15;;;;;;;16.47;4.60;;;;;;;3.63;60.60;96637.34;5057124;28;20211;-70
2022/03/11 00:37:42;;;;;;;7.13;3.63;;;;;;;3.83;60.03;96633.94;5057491;28;20208;-70
2022/03/11 00:40:11;;;;;;;12.70;3.47;;;;;;;3.47;60.66;96641.34;5057225;28;20211;-70
2022/03/11 00:42:39;;;;;;;9.53;3.97;;;;;;;3.86;59.83;96635.47;5056555;28;20663;-70
2022/03/11 00:45:06;;;;;;;4.87;2.50;;;;;;;3.70;60.11;96638.53;5056194;28;20587;-70
2022/03/11 00:47:33;;;;;;;16.40;4.37;;;;;;;3.70;59.93;96645.50;5056799;28;20632;-69
2022/03/11 00:50:00;;;;;;;11.23;4.30;;;;;;;3.78;59.01;96649.13;5056533;28;20568;-69
2022/03/11 00:52:27;;;;;;;9.53;4.30;;;;;;;3.67;59.04;96643.97;5052960;28;20314;-70
2022/03/11 00:54:53;;;;;;;6.60;3.80;;;;;;;3.62;59.26;96639.28;5056050;28;20214;-71
2022/03/11 00:57:20;;;;;;;8.83;4.33;;;;;;;3.58;59.50;96637.84;5057078;28;20208;-70
2022/03/11 00:59:48;;;;;;;10.47;3.23;;;;;;;3.59;59.81;96635.16;5057933;28;20200;-71
2022/03/11 01:02:14;;;;;;;13.07;5.63;;;;;;;3.43;59.91;96632.13;5055927;28;20207;-71
2022/03/11 01:04:41;;;;;;;6.57;4.73;;;;;;;3.42;60.25;96632.25;5056497;28;20231;-69
2022/03/11 01:07:07;;;;;;;6.90;3.40;;;;;;;3.40;59.50;96639.34;5057194;28;20577;-70
2022/03/11 01:09:34;;;;;;;14.03;3.40;;;;;;;3.08;60.00;96630.69;5056761;28;20844;-71
2022/03/11 01:12:00;;;;;;;6.93;3.07;;;;;;;3.27;59.56;96636.06;5056043;28;20210;-71
2022/03/11 01:14:27;;;;;;;5.27;3.83;;;;;;;3.13;60.15;96628.53;5056287;28;20224;-70
2022/03/11 01:16:54;;;;;;;9.40;4.93;;;;;;;3.16;60.19;96629.13;5056177;28;20690;-71
2022/03/11 01:19:21;;;;;;;6.63;2.93;;;;;;;3.18;60.01;96623.81;5056373;28;20212;-71
2022/03/11 01:21:47;;;;;;;9.80;2.43;;;;;;;2.95;59.95;96627.41;5056747;28;21289;-71
2022/03/11 01:24:14;;;;;;;6.03;3.43;;;;;;;2.77;59.95;96630.66;5055596;28;20569;-70
2022/03/11 01:26:40;;;;;;;5.80;3.00;;;;;;;3.02;59.33;96631.19;5055813;28;20583;-70
2022/03/11 01:29:07;;;;;;;10.30;3.50;;;;;;;3.03;58.60;96631.06;5056788;28;20207;-70
2022/03/11 01:31:33;;;;;;;8.17;2.73;;;;;;;3.04;58.28;96635.34;5056735;28;20207;-70
2022/03/11 01:34:01;;;;;;;4.77;3.10;;;;;;;3.33;58.02;96633.00;5055393;28;20239;-70
2022/03/11 01:36:27;;;;;;;10.67;5.13;;;;;;;2.99;58.35;96634.03;5059322;28;20207;-69
2022/03/11 01:38:54;;;;;;;5.97;1.97;;;;;;;2.98;58.32;96637.59;5061010;28;20201;-70
2022/03/11 01:41:21;;;;;;;5.13;3.20;;;;;;;2.73;58.69;96640.47;5060285;28;20206;-71
2022/03/11 01:43:52;;;;;;;10.47;4.13;;;;;;;2.86;59.03;96629.94;5059496;28;20220;-69
2022/03/11 01:46:18;;;;;;;12.43;5.00;;;;;;;2.67;58.35;96627.97;5060173;28;20707;-70
2022/03/11 01:48:45;;;;;;;11.10;3.47;;;;;;;2.67;58.47;96624.50;5060262;28;20989;-69
2022/03/11 01:51:13;;;;;;;3.63;2.70;;;;;;;2.58;58.06;96622.63;5057494;28;20723;-70
2022/03/11 01:53:39;;;;;;;7.63;3.43;;;;;;;2.38;57.72;96614.72;5059094;28;20235;-70
2022/03/11 01:56:06;;;;;;;9.70;2.57;;;;;;;2.52;57.58;96613.53;5060016;28;20203;-70
2022/03/11 01:58:34;;;;;;;16.23;4.10;;;;;;;2.52;57.06;96613.53;5060464;28;20211;-70
2022/03/11 02:01:02;;;;;;;2.57;1.90;;;;;;;2.49;57.07;96612.94;5060718;28;20221;-71
2022/03/11 02:03:28;;;;;;;12.83;3.40;;;;;;;2.36;56.76;96614.03;5059244;28;20231;-70
2022/03/11 02:05:55;;;;;;;10.73;4.37;;;;;;;2.49;56.35;96608.56;5059357;28;20216;-70
2022/03/11 02:08:23;;;;;;;8.23;1.77;;;;;;;2.60;55.52;96613.75;5060771;28;20204;-71
2022/03/11 02:10:49;;;;;;;6.10;2.60;;;;;;;2.30;55.82;96612.69;5060801;28;20197;-70
2022/03/11 02:13:16;;;;;;;4.30;1.93;;;;;;;2.34;55.21;96608.91;5058804;28;20225;-68
2022/03/11 02:15:42;;;;;;;5.70;2.90;;;;;;;2.32;54.75;96615.19;5059919;28;20220;-69
2022/03/11 02:18:08;;;;;;;8.03;3.50;;;;;;;2.47;54.41;96617.44;5059559;28;20568;-70
2022/03/11 02:20:35;;;;;;;8.47;2.53;;;;;;;2.53;54.43;96620.41;5059483;28;20206;-70
2022/03/11 02:23:04;;;;;;;2.50;2.17;;;;;;;2.50;54.33;96612.81;5058895;28;20236;-69
2022/03/11 02:25:32;;;;;;;3.23;2.50;;;;;;;2.61;53.67;96624.97;5059145;28;20228;-69
2022/03/11 02:27:58;;;;;;;3.27;1.70;;;;;;;2.46;53.30;96621.81;5059688;28;20204;-70
2022/03/11 02:30:24;;;;;;;1.40;1.03;;;;;;;2.40;53.01;96622.28;5059368;28;20291;-69
2022/03/11 02:32:51;;;;;;;6.23;2.97;;;;;;;2.35;53.33;96623.56;5059024;28;20788;-69
2022/03/11 02:35:18;;;;;;;7.77;2.20;;;;;;;2.22;53.00;96616.84;5059271;28;20214;-69
2022/03/11 02:37:45;;;;;;;2.63;1.70;;;;;;;2.29;52.99;96616.28;5059276;28;20615;-69
2022/03/11 02:40:12;;;;;;;1.50;1.40;;;;;;;2.24;52.68;96617.53;5059807;28;20219;-69
2022/03/11 02:42:40;;;;;;;6.10;1.87;;;;;;;2.38;52.36;96617.31;5058656;28;20220;-69
2022/03/11 02:45:08;;;;;;;6.93;2.90;;;;;;;2.17;53.82;96612.00;5058977;28;20224;-68
2022/03/11 02:47:34;;;;;;;1.70;1.37;;;;;;;1.93;54.06;96611.25;5058540;28;20656;-69
2022/03/11 02:50:01;;;;;;;5.20;2.03;;;;;;;1.83;54.20;96606.88;5059232;28;20687;-68
2022/03/11 02:52:29;;;;;;;5.77;2.30;;;;;;;1.82;54.63;96602.66;5055264;28;20994;-72
2022/03/11 02:54:56;;;;;;;2.07;1.67;;;;;;;1.82;54.82;96600.03;5059025;28;20999;-69
2022/03/11 02:57:23;;;;;;;3.87;1.77;;;;;;;1.93;54.13;96597.44;5058985;28;20200;-70
2022/03/11 02:59:50;;;;;;;3.20;2.13;;;;;;;1.99;53.80;96602.19;5059067;28;20207;-70
2022/03/11 03:02:17;;;;;;;2.23;1.83;;;;;;;1.84;53.88;96598.16;5057413;28;20204;-69
2022/03/11 03:04:44;;;;;;;9.53;2.20;;;;;;;1.77;54.17;96602.16;5059058;28;20209;-71
2022/03/11 03:07:11;;;;;;;10.53;2.17;;;;;;;1.90;53.52;96597.69;5058511;28;20290;-71
2022/03/11 03:09:41;;;;;;;3.87;1.73;;;;;;;1.89;52.40;96596.84;5059053;28;20200;-70
2022/03/11 03:12:09;;;;;;;5.13;1.87;;;;;;;1.97;52.36;96589.31;5059307;28;20200;-70
2022/03/11 03:14:36;;;;;;;7.63;1.40;;;;;;;1.83;52.61;96588.69;5058550;28;20200;-70
2022/03/11 03:17:04;;;;;;;2.60;1.30;;;;;;;2.01;52.90;96588.13;5058187;28;20197;-69
2022/03/11 03:19:30;;;;;;;16.33;2.10;;;;;;;1.77;51.83;96580.53;5055583;28;20228;-70
2022/03/11 03:21:57;;;;;;;2.70;1.80;;;;;;;1.68;51.87;96582.06;5059375;28;20211;-70
2022/03/11 03:24:23;;;;;;;2.93;1.80;;;;;;;1.72;51.60;96575.69;5057320;28;20246;-71
2022/03/11 03:26:50;;;;;;;3.20;1.60;;;;;;;1.75;51.81;96578.06;5058112;28;20228;-71
2022/03/11 03:29:16;;;;;;;5.00;1.97;;;;;;;1.72;52.35;96583.50;5059300;28;20202;-70
2022/03/11 03:31:43;;;;;;;3.23;1.80;;;;;;;1.66;51.19;96576.16;5058370;28;20255;-70
2022/03/11 03:34:10;;;;;;;1.10;0.90;;;;;;;1.82;51.43;96568.88;5057468;28;20228;-70
2022/03/11 03:36:37;;;;;;;2.27;1.13;;;;;;;1.66;50.86;96572.75;5058642;28;20545;-71
2022/03/11 03:39:03;;;;;;;1.33;0.80;;;;;;;1.71;50.21;96574.03;5058205;28;20230;-69
2022/03/11 03:41:30;;;;;;;2.40;1.57;;;;;;;1.62;50.54;96582.53;5058203;28;20262;-70
2022/03/11 03:43:56;;;;;;;2.80;1.20;;;;;;;1.55;49.82;96581.31;5057438;28;20704;-70
2022/03/11 03:46:23;;;;;;;5.17;1.13;;;;;;;1.65;50.92;96584.88;5057972;28;20236;-68
2022/03/11 03:48:49;;;;;;;1.47;1.37;;;;;;;1.54;51.39;96579.69;5057360;28;20571;-69
2022/03/11 03:51:17;;;;;;;2.73;2.00;;;;;;;1.49;51.09;96580.94;5055122;28;20200;-69
2022/03/11 03:53:43;;;;;;;2.57;1.40;;;;;;;1.11;52.07;96582.09;5057186;28;20694;-70
2022/03/11 03:56:10;;;;;;;2.17;1.27;;;;;;;1.07;52.29;96572.91;5057843;28;20968;-69
2022/03/11 03:58:36;;;;;;;0.90;0.90;;;;;;;1.17;52.14;96584.28;5056608;28;20212;-69
2022/03/11 04:01:03;;;;;;;2.33;1.33;;;;;;;1.15;52.14;96586.16;5057929;28;20963;-70
2022/03/11 04:03:29;;;;;;;1.53;0.83;;;;;;;1.09;51.54;96581.41;5057139;28;21200;-70
2022/03/11 04:05:57;;;;;;;1.67;1.40;;;;;;;1.06;51.76;96574.69;5057547;28;20620;-69
2022/03/11 04:08:25;;;;;;;1.03;0.97;;;;;;;1.19;52.51;96572.03;5057349;28;20915;-70
2022/03/11 04:10:51;;;;;;;3.13;1.07;;;;;;;0.95;52.46;96568.63;5058073;28;20204;-70
2022/03/11 04:13:18;;;;;;;3.60;1.70;;;;;;;0.91;52.29;96569.78;5056685;28;20228;-70
2022/03/11 04:15:44;;;;;;;1.90;1.30;;;;;;;0.86;52.83;96574.47;5057659;28;20209;-71
2022/03/11 04:18:11;;;;;;;1.50;1.40;;;;;;;0.75;53.31;96577.84;5057314;28;20220;-70
2022/03/11 04:20:37;;;;;;;2.13;1.93;;;;;;;0.88;52.83;96576.00;5057331;28;20208;-71
2022/03/11 04:23:04;;;;;;;2.00;1.70;;;;;;;0.90;51.75;96583.69;5056904;28;20224;-71
2022/03/11 04:25:31;;;;;;;2.97;1.77;;;;;;;1.19;52.15;96585.81;5057870;28;20304;-70
2022/03/11 04:27:58;;;;;;;2.77;1.77;;;;;;;1.11;51.95;96580.38;5057461;28;20201;-71
2022/03/11 04:30:25;;;;;;;12.13;1.10;;;;;;;1.03;52.46;96582.69;5057119;28;20219;-70
2022/03/11 04:32:52;;;;;;;4.77;1.23;;;;;;;0.96;52.49;96588.44;5057876;28;20231;-70
2022/03/11 04:35:19;;;;;;;1.33;0.93;;;;;;;0.91;52.99;96582.75;5057024;28;20207;-70
2022/03/11 04:37:45;;;;;;;2.67;0.90;;;;;;;0.76;53.42;96578.66;5056916;28;20203;-71
2022/03/11 04:40:12;;;;;;;4.27;1.47;;;;;;;0.73;53.89;96584.88;5057097;28;20213;-70
2022/03/11 04:42:40;;;;;;;1.80;1.40;;;;;;;0.94;54.24;96579.91;5056251;28;20949;-71
2022/03/11 04:45:07;;;;;;;10.17;3.00;;;;;;;0.78;54.63;96574.19;5056592;28;20208;-69
2022/03/11 04:47:34;;;;;;;2.03;1.60;;;;;;;0.64;54.31;96569.16;5056593;28;20236;-71
2022/03/11 04:50:00;;;;;;;1.93;1.73;;;;;;;0.62;53.92;96578.81;5057237;28;20215;-71
2022/03/11 04:52:27;;;;;;;1.50;1.07;;;;;;;0.51;53.78;96573.56;5053705;28;20224;-71
2022/03/11 04:54:53;;;;;;;3.10;2.23;;;;;;;0.37;54.33;96567.69;5056545;28;21245;-69
2022/03/11 04:57:20;;;;;;;2.77;2.00;;;;;;;0.51;54.25;96570.97;5056853;28;20197;-70
2022/03/11 04:59:47;;;;;;;2.10;1.90;;;;;;;0.56;54.78;96571.50;5056931;28;20204;-71
2022/03/11 05:02:14;;;;;;;3.60;1.00;;;;;;;0.31;54.56;96566.38;5055998;28;20239;-69
2022/03/11 05:04:41;;;;;;;1.17;1.17;;;;;;;0.26;54.49;96559.84;5056819;28;20204;-70
2022/03/11 05:07:08;;;;;;;1.20;1.10;;;;;;;0.05;55.24;96569.94;5056615;28;20239;-69
2022/03/11 05:09:34;;;;;;;2.67;1.17;;;;;;;0.09;55.46;96566.22;5056730;28;21171;-69
2022/03/11 05:12:01;;;;;;;2.17;1.10;;;;;;;0.17;55.49;96569.09;5056805;28;20207;-70
2022/03/11 05:14:27;;;;;;;2.40;1.77;;;;;;;0.18;55.90;96560.38;5055807;28;20224;-71
2022/03/11 05:16:55;;;;;;;1.83;1.23;;;;;;;0.27;56.04;96551.97;5056866;28;20317;-70
2022/03/11 05:19:24;;;;;;;2.33;1.47;;;;;;;0.06;56.26;96552.63;5056619;28;20216;-71
2022/03/11 05:21:52;;;;;;;7.00;1.07;;;;;;;-0.02;56.28;96555.75;5056544;28;20690;-71
2022/03/11 05:24:18;;;;;;;1.47;1.37;;;;;;;-0.04;56.78;96558.56;5055572;28;20339;-70
2022/03/11 05:26:45;;;;;;;8.53;2.67;;;;;;;0.08;56.31;96569.72;5057108;28;20316;-71
2022/03/11 05:29:12;;;;;;;1.70;0.90;;;;;;;0.25;55.83;96568.56;5056406;28;20208;-70
2022/03/11 05:31:39;;;;;;;2.13;0.67;;;;;;;0.29;55.31;96572.59;5056045;28;20215;-70
2022/03/11 05:34:07;;;;;;;1.40;1.23;;;;;;;0.49;54.99;96567.66;5056643;28;20220;-71
2022/03/11 05:36:33;;;;;;;4.50;1.17;;;;;;;0.17;55.27;96570.88;5056496;28;20207;-70
2022/03/11 05:39:00;;;;;;;1.97;1.10;;;;;;;0.19;56.05;96581.94;5056047;28;20571;-69
2022/03/11 05:41:27;;;;;;;1.07;0.97;;;;;;;0.18;55.89;96572.53;5057019;28;20215;-70
2022/03/11 05:43:54;;;;;;;2.27;1.50;;;;;;;0.36;55.63;96571.25;5056218;28;20325;-70
2022/03/11 05:46:20;;;;;;;2.57;2.10;;;;;;;0.31;55.70;96576.72;5055341;28;20395;-70
2022/03/11 05:48:47;;;;;;;0.53;0.53;;;;;;;0.40;55.14;96589.03;5056318;28;20207;-69
2022/03/11 05:51:14;;;;;;;1.27;1.27;;;;;;;0.47;54.98;96582.50;5054231;28;20219;-70
2022/03/11 05:53:41;;;;;;;0.80;0.80;;;;;;;0.24;55.84;96585.88;5055160;28;20224;-69
2022/03/11 05:56:07;;;;;;;2.60;1.70;;;;;;;0.11;56.22;96586.81;5055928;28;20204;-70
2022/03/11 05:58:34;;;;;;;9.63;1.30;;;;;;;0.20;56.02;96583.59;5056510;28;20205;-70
2022/03/11 06:01:00;;;;;;;1.43;1.33;;;;;;;0.05;55.77;96587.22;5055870;28;20208;-70
2022/03/11 06:03:27;;;;;;;2.13;1.20;;;;;;;0.18;56.22;96588.06;5054979;28;20724;-70
2022/03/11 06:05:53;;;;;;;1.13;1.07;;;;;;;0.13;56.25;96579.78;5056423;28;20200;-69
2022/03/11 06:08:22;;;;;;;2.80;1.63;;;;;;;0.25;56.04;96586.69;5055481;28;20254;-70
2022/03/11 06:10:48;;;;;;;0.80;0.80;;;;;;;0.12;55.97;96586.72;5055780;28;20200;-69
2022/03/11 06:13:15;;;;;;;2.93;2.00;;;;;;;0.15;55.90;96588.25;5055237;28;20228;-71
2022/03/11 06:15:41;;;;;;;2.83;1.70;;;;;;;0.25;55.72;96590.09;5055608;28;20711;-70
2022/03/11 06:18:09;;;;;;;1.10;1.07;;;;;;;0.42;55.23;96588.94;5056418;28;20292;-69
2022/03/11 06:20:36;;;;;;;6.43;1.90;;;;;;;0.46;55.83;96590.38;5055998;28;20204;-70
2022/03/11 06:23:03;;;;;;;2.23;1.40;;;;;;;0.42;56.40;96589.78;5056680;28;20224;-70
2022/03/11 06:25:31;;;;;;;1.13;0.97;;;;;;;0.62;56.96;96591.78;5059994;28;20209;-70
2022/03/11 06:27:57;;;;;;;1.30;1.03;;;;;;;0.47;56.13;96595.47;5059495;28;20220;-70
2022/03/11 06:30:24;;;;;;;3.90;1.03;;;;;;;0.46;55.94;96595.56;5059349;28;20208;-70
2022/03/11 06:32:51;;;;;;;4.63;2.23;;;;;;;0.63;55.74;96594.25;5058987;28;20231;-73
2022/03/11 06:35:19;;;;;;;5.40;1.13;;;;;;;0.84;55.22;96595.34;5059611;28;20676;-72
2022/03/11 06:37:47;;;;;;;3.73;1.53;;;;;;;0.87;55.56;96597.69;5059377;28;20278;-72
2022/03/11 06:40:14;;;;;;;3.23;1.70;;;;;;;1.07;55.10;96591.06;5058906;28;21233;-71
2022/03/11 06:42:44;;;;;;;0.50;0.50;;;;;;;1.19;55.34;96603.16;5058482;28;20252;-72
2022/03/11 06:45:12;;;;;;;1.20;1.10;;;;;;;1.26;55.06;96600.81;5059456;28;20197;-71
2022/03/11 06:47:39;;;;;;;3.90;1.13;;;;;;;1.28;55.37;96598.13;5058838;28;20561;-71
2022/03/11 06:50:06;;;;;;;3.03;1.57;;;;;;;1.43;54.54;96597.81;5059133;28;20208;-71
2022/03/11 06:52:33;;;;;;;11.43;3.23;;;;;;;1.35;54.52;96602.75;5058290;28;20235;-71
2022/03/11 06:55:00;;;;;;;2.90;2.37;;;;;;;1.45;54.00;96606.31;5059387;28;20212;-70
2022/03/11 06:57:26;;;;;;;3.10;1.70;;;;;;;1.29;54.61;96605.78;5059002;28;20204;-70
2022/03/11 06:59:54;;;;;;;1.20;1.07;;;;;;;1.56;54.93;96606.34;5059210;28;20495;-70
2022/03/11 07:02:20;;;;;;;4.47;1.00;;;;;;;1.46;54.13;96605.34;5057801;28;20571;-71
2022/03/11 07:04:47;;;;;;;1.03;1.03;;;;;;;1.64;54.30;96603.19;5058654;28;20206;-70
2022/03/11 07:07:13;;;;;;;7.23;2.13;;;;;;;1.80;53.19;96601.09;5058955;28;20220;-70
2022/03/11 07:09:40;;;;;;;4.33;2.00;;;;;;;1.88;51.93;96602.16;5059215;28;20205;-71
2022/03/11 07:12:07;;;;;;;1.83;0.93;;;;;;;1.98;51.65;96605.72;5058067;28;20692;-70
2022/03/11 07:14:36;;;;;;;8.57;1.83;;;;;;;2.19;51.56;96601.47;5058381;28;20210;-71
2022/03/11 07:17:05;;;;;;;3.57;1.63;;;;;;;2.19;51.32;96612.72;5058536;28;20197;-71
2022/03/11 07:19:32;;;;;;;12.53;2.57;;;;;;;2.12;50.91;96614.13;5057669;28;20771;-71
2022/03/11 07:22:00;;;;;;;2.17;1.20;;;;;;;2.37;50.69;96613.06;5058272;28;20265;-70
2022/03/11 07:24:26;;;;;;;5.90;2.10;;;;;;;2.30;51.25;96604.91;5058828;28;20220;-71
2022/03/11 07:26:53;;;;;;;8.40;3.27;;;;;;;2.50;51.70;96599.00;5058168;28;20249;-71
2022/03/11 07:29:19;;;;;;;2.90;2.00;;;;;;;2.70;50.97;96606.91;5058416;28;20201;-71
2022/03/11 07:31:46;;;;;;;2.80;1.63;;;;;;;2.69;50.61;96605.22;5058548;28;20207;-71
2022/03/11 07:34:14;;;;;;;2.13;1.20;;;;;;;2.76;50.09;96609.03;5057317;28;20237;-71
2022/03/11 07:36:41;;;;;;;2.77;1.57;;;;;;;2.79;50.35;96610.53;5058147;28;20578;-71
2022/03/11 07:39:09;;;;;;;2.47;1.53;;;;;;;2.89;50.68;96617.50;5058979;28;20302;-71
2022/03/11 07:41:37;;;;;;;5.67;2.50;;;;;;;2.68;50.13;96618.38;5058211;28;20208;-70
2022/03/11 07:44:04;;;;;;;5.57;2.10;;;;;;;2.54;51.59;96618.63;5057344;28;20582;-71
2022/03/11 07:46:31;;;;;;;4.63;2.33;;;;;;;2.79;51.46;96613.97;5058191;28;20291;-72
2022/03/11 07:48:58;;;;;;;3.77;1.70;;;;;;;2.93;50.91;96618.91;5058275;28;20295;-71
2022/03/11 07:51:26;;;;;;;4.27;2.53;;;;;;;3.21;49.11;96618.38;5057464;28;20204;-70
2022/03/11 07:53:52;;;;;;;1.30;1.20;;;;;;;3.33;49.14;96617.38;5057681;28;20229;-70
2022/03/11 07:56:19;;;;;;;1.73;1.40;;;;;;;3.37;50.03;96614.38;5058196;28;20211;-70
2022/03/11 07:58:45;;;;;;;4.13;2.67;;;;;;;3.48;49.79;96605.72;5057773;28;20223;-71
2022/03/11 08:01:13;;;;;;;3.20;2.27;;;;;;;3.48;48.52;96609.13;5057716;28;20230;-70
2022/03/11 08:03:41;;;;;;;1.57;1.07;;;;;;;3.28;48.34;96607.31;5056934;28;20217;-70
2022/03/11 08:06:09;;;;;;;7.53;3.07;;;;;;;3.62;49.16;96609.63;5057584;28;20321;-71
2022/03/11 08:08:37;;;;;;;3.30;1.83;;;;;;;3.72;49.24;96610.53;5057586;28;20228;-71
2022/03/11 08:11:04;;;;;;;2.87;2.13;;;;;;;3.74;49.35;96615.63;5057264;28;20205;-71
2022/03/11 08:13:31;;;;;;;4.80;2.17;;;;;;;3.76;48.82;96611.94;5056250;28;20273;-70
2022/03/11 08:15:57;;;;;;;4.07;1.93;;;;;;;3.74;48.98;96607.81;5057178;28;20926;-70
2022/03/11 08:18:24;;;;;;;8.33;2.57;;;;;;;3.87;49.20;96604.06;5056863;28;20327;-71
2022/03/11 08:20:50;;;;;;;2.30;1.27;;;;;;;3.95;48.51;96601.63;5057751;28;20292;-71
2022/03/11 08:23:17;;;;;;;14.00;2.10;;;;;;;3.98;46.77;96605.78;5056639;28;20255;-70
2022/03/11 08:25:45;;;;;;;3.17;1.67;;;;;;;4.39;47.61;96611.75;5058050;28;20209;-70
2022/03/11 08:28:13;;;;;;;4.00;1.70;;;;;;;4.29;46.99;96603.06;5057398;28;20603;-70
2022/03/11 08:30:40;;;;;;;3.50;2.23;;;;;;;4.32;48.20;96602.81;5055945;28;20212;-71
2022/03/11 08:33:07;;;;;;;3.73;2.33;;;;;;;4.20;48.28;96606.47;5056531;28;20261;-71
2022/03/11 08:35:34;;;;;;;6.17;2.53;;;;;;;4.57;47.92;96618.84;5057454;28;20287;-70
2022/03/11 08:38:03;;;;;;;11.07;2.87;;;;;;;4.37;48.44;96613.69;5056954;28;20204;-71
2022/03/11 08:40:29;;;;;;;2.23;1.87;;;;;;;4.70;47.33;96613.38;5056537;28;20333;-70
2022/03/11 08:42:57;;;;;;;3.03;0.90;;;;;;;4.99;46.12;96613.34;5056713;28;20224;-71
2022/03/11 08:45:24;;;;;;;2.50;1.80;;;;;;;4.79;46.36;96610.00;5056293;28;20208;-71
2022/03/11 08:47:51;;;;;;;7.47;2.80;;;;;;;5.04;47.20;96611.16;5056991;28;20235;-70
2022/03/11 08:50:19;;;;;;;5.97;1.93;;;;;;;5.03;46.75;96609.50;5056147;28;20698;-70
2022/03/11 08:52:46;;;;;;;2.47;2.07;;;;;;;5.09;47.04;96610.72;5055780;28;20217;-71
2022/03/11 08:55:14;;;;;;;2.00;1.77;;;;;;;5.37;46.96;96597.69;5056770;28;20208;-70
2022/03/11 08:57:41;;;;;;;5.50;2.87;;;;;;;5.15;45.93;96603.19;5056722;28;20196;-71
2022/03/11 09:00:13;;;;;;;6.80;2.23;;;;;;;5.48;46.56;96602.81;5056861;28;21205;-71
2022/03/11 09:02:39;;;;;;;5.33;2.30;;;;;;;5.47;46.70;96590.69;5056023;28;20220;-70
2022/03/11 09:05:08;;;;;;;10.43;3.20;;;;;;;5.59;46.00;96592.22;5056669;28;20587;-71
2022/03/11 09:07:35;;;;;;;9.50;2.70;;;;;;;5.69;45.57;96586.00;5056943;28;20273;-70
2022/03/11 09:10:06;;;;;;;5.70;2.00;;;;;;;5.96;45.23;96585.31;5056634;28;20207;-71
2022/03/11 09:12:32;;;;;;;6.70;2.07;;;;;;;5.70;45.49;96579.84;5055369;28;20235;-70
2022/03/11 09:14:59;;;;;;;16.77;2.93;;;;;;;5.96;45.46;96582.69;5056957;28;20582;-70
2022/03/11 09:17:27;;;;;;;4.53;2.53;;;;;;;5.80;45.69;96579.84;5057301;28;20211;-71
2022/03/11 09:19:54;;;;;;;6.90;1.97;;;;;;;5.83;45.71;96579.56;5056243;28;20216;-71
2022/03/11 09:22:21;;;;;;;5.83;2.50;;;;;;;6.18;45.69;96591.03;5054595;28;20356;-71
2022/03/11 09:24:48;;;;;;;10.57;3.37;;;;;;;6.37;45.18;96581.34;5056303;28;20687;-71
2022/03/11 09:27:16;;;;;;;7.10;2.80;;;;;;;6.25;44.81;96586.88;5056022;28;20228;-71
2022/03/11 09:29:43;;;;;;;3.17;1.97;;;;;;;6.35;43.51;96578.06;5055695;28;20200;-70
2022/03/11 09:32:10;;;;;;;6.47;2.77;;;;;;;6.39;45.46;96576.81;5056035;28;20208;-70
2022/03/11 09:34:38;;;;;;;7.43;3.47;;;;;;;6.70;44.78;96562.47;5056030;28;20289;-70
2022/03/11 09:37:05;;;;;;;7.33;2.83;;;;;;;6.62;44.32;96567.63;5057051;28;20298;-71
2022/03/11 09:39:32;;;;;;;7.03;2.57;;;;;;;6.98;44.46;96569.34;5056531;28;20631;-70
2022/03/11 09:41:59;;;;;;;2.80;1.90;;;;;;;6.77;44.54;96571.38;5056441;28;20277;-71
2022/03/11 09:44:25;;;;;;;6.00;3.10;;;;;;;7.24;44.09;96568.47;5055719;28;20235;-71
2022/03/11 09:46:52;;;;;;;5.17;2.60;;;;;;;7.24;44.41;96565.84;5057183;28;20223;-71
2022/03/11 09:49:18;;;;;;;4.87;2.13;;;;;;;7.38;41.77;96563.53;5055841;28;20224;-71
2022/03/11 09:51:47;;;;;;;6.57;2.63;;;;;;;7.08;44.32;96567.50;5055730;28;20298;-71
2022/03/11 09:54:15;;;;;;;11.90;3.17;;;;;;;7.11;43.53;96562.75;5054697;28;20231;-71
2022/03/11 09:56:43;;;;;;;2.80;2.40;;;;;;;7.19;43.95;96552.34;5057395;28;20269;-71
2022/03/11 09:59:11;;;;;;;5.90;2.77;;;;;;;7.41;42.95;96554.56;5059498;28;20482;-71
2022/03/11 10:01:37;;;;;;;6.27;2.77;;;;;;;7.39;44.21;96561.72;5059479;28;20416;-71
2022/03/11 10:04:04;;;;;;;4.90;2.33;;;;;;;7.48;42.77;96556.41;5059006;28;20223;-71
2022/03/11 10:06:38;;;;;;;10.63;3.13;;;;;;;7.69;43.37;96559.56;5059352;28;20467;-70
2022/03/11 10:09:05;;;;;;;24.50;4.03;;;;;;;7.30;44.48;96547.72;5059991;28;20260;-70
2022/03/11 10:11:33;;;;;;;5.53;2.47;;;;;;;7.15;44.44;96544.94;5059399;28;20200;-70
2022/03/11 10:14:06;;;;;;;4.47;2.13;;;;;;;7.60;43.78;96539.47;5058514;28;20330;-70
2022/03/11 10:16:33;;;;;;;7.03;2.53;;;;;;;7.71;42.74;96533.16;5059448;28;20200;-70
2022/03/11 10:19:02;;;;;;;8.23;2.63;;;;;;;7.64;44.73;96532.94;5058903;28;20215;-70
2022/03/11 10:21:30;;;;;;;6.03;2.50;;;;;;;7.94;43.90;96527.25;5059090;28;20823;-70
2022/03/11 10:23:57;;;;;;;2.90;1.83;;;;;;;8.22;42.50;96532.25;5058199;28;20224;-70
2022/03/11 10:26:36;;;;;;;4.10;2.43;;;;;;;8.78;41.98;96525.44;5059318;28;20317;-71
2022/03/11 10:29:04;;;;;;;7.77;2.40;;;;;;;8.80;41.83;96533.97;5059068;28;20250;-70
2022/03/11 10:31:32;;;;;;;5.53;2.20;;;;;;;8.99;41.66;96528.47;5058460;28;20201;-70
2022/03/11 10:34:16;;;;;;;9.17;2.87;;;;;;;9.19;41.90;96524.59;5058239;28;20224;-70
2022/03/11 10:36:48;;;;;;;3.73;2.57;;;;;;;8.07;42.03;96528.50;5058146;28;20211;-70
2022/03/11 10:39:15;;;;;;;6.23;2.73;;;;;;;8.58;41.45;96524.06;5058738;28;20330;-70
2022/03/11 10:41:43;;;;;;;7.17;2.63;;;;;;;8.78;42.34;96530.72;5058901;28;20320;-70
2022/03/11 10:44:10;;;;;;;9.00;3.20;;;;;;;8.57;41.00;96522.41;5057498;28;20235;-70
2022/03/11 10:46:37;;;;;;;11.00;3.77;;;;;;;8.92;41.98;96509.03;5058792;28;20207;-71
2022/03/11 10:49:04;;;;;;;7.17;2.73;;;;;;;8.92;42.98;96516.94;5058928;28;20700;-70
2022/03/11 10:51:32;;;;;;;4.97;2.60;;;;;;;9.47;41.07;96507.50;5058314;28;20201;-71
2022/03/11 10:53:59;;;;;;;9.50;2.60;;;;;;;9.31;41.66;96512.75;5057329;28;20307;-71
2022/03/11 10:56:29;;;;;;;4.10;2.17;;;;;;;9.60;40.79;96507.81;5058970;28;20291;-71
2022/03/11 10:58:56;;;;;;;7.33;3.47;;;;;;;9.74;40.94;96510.63;5059872;28;20197;-70
2022/03/11 11:01:37;;;;;;;6.83;2.93;;;;;;;9.73;41.76;96504.53;5058821;28;20200;-70
2022/03/11 11:04:05;;;;;;;7.70;2.80;;;;;;;9.98;40.22;96502.72;5058576;28;20220;-70
2022/03/11 11:06:32;;;;;;;4.60;2.23;;;;;;;10.05;39.38;96504.53;5059222;28;20684;-70
2022/03/11 11:08:59;;;;;;;11.73;3.70;;;;;;;10.14;40.32;96503.53;5058002;28;20224;-71
2022/03/11 11:11:26;;;;;;;7.77;3.83;;;;;;;10.19;40.50;96501.22;5058838;28;20211;-70
2022/03/11 11:13:53;;;;;;;7.53;2.90;;;;;;;9.72;40.49;96502.91;5058242;28;20224;-71
2022/03/11 11:16:27;;;;;;;7.53;3.27;;;;;;;9.96;40.75;96495.00;5058683;28;20208;-70
2022/03/11 11:18:57;;;;;;;6.03;3.33;;;;;;;9.97;40.72;96487.94;5058379;28;20205;-70
2022/03/11 11:21:24;;;;;;;5.17;2.73;;;;;;;10.06;40.10;96492.22;5058694;28;20208;-71
2022/03/11 11:23:52;;;;;;;12.07;3.87;;;;;;;10.55;39.75;96476.06;5057455;28;20220;-70
2022/03/11 11:26:19;;;;;;;6.43;2.97;;;;;;;10.63;39.03;96479.50;5058587;28;20205;-71
2022/03/11 11:28:45;;;;;;;9.77;3.33;;;;;;;10.69;39.10;96480.63;5058410;28;20223;-71
2022/03/11 11:31:12;;;;;;;9.93;3.57;;;;;;;11.10;38.05;96467.88;5058431;28;20208;-71
2022/03/11 11:33:40;;;;;;;6.43;2.93;;;;;;;10.80;39.05;96465.25;5058028;28;20216;-71
2022/03/11 11:36:07;;;;;;;7.60;3.23;;;;;;;11.00;38.38;96464.63;5058794;28;20316;-71
2022/03/11 11:38:37;;;;;;;8.70;3.37;;;;;;;11.24;38.77;96458.38;5058360;28;20287;-70
2022/03/11 11:41:23;;;;;;;7.97;3.17;;;;;;;10.98;39.69;96457.91;5058683;28;20254;-70